Time;durP1;ratioP1;P1;durP2;ratioP2;P2;SDS_P1;SDS_P2;PMS_P1;PMS_P2;Temp;Humidity;BMP_temperature;BMP_pressure;BME280_temperature;BME280_humidity;BME280_pressure;Samples;Min_cycle;Max_cycle;Signal;HPM_P1;HPM_P2
2024/02/21 00:02:17;;;;;;;;;;;8.90;99.90;;;;;;6639109;89;20039;-79
2024/02/21 00:12:18;;;;;;;;;;;9.00;99.90;;;;;;6644660;88;20067;-80
2024/02/21 00:22:18;;;;;;;;;;;8.90;99.90;;;;;;6645075;89;20613;-80
2024/02/21 00:32:18;;;;;;;;;;;9.00;99.90;;;;;;6634652;89;20098;-79
2024/02/21 00:52:22;;;;;;;;;;;8.80;99.90;;;;;;6741598;88;20109;-79
2024/02/21 01:02:23;;;;;;;;;;;8.80;99.90;;;;;;6725088;88;20044;-80
2024/02/21 01:12:23;;;;;;;;;;;8.70;99.90;;;;;;6724493;88;20495;-81
2024/02/21 01:22:24;;;;;;;;;;;8.70;99.90;;;;;;6722005;88;20139;-80
2024/02/21 01:32:24;;;;;;;;;;;8.70;99.90;;;;;;6716027;88;20106;-80
2024/02/21 01:42:25;;;;;;;;;;;8.60;99.90;;;;;;6718306;88;21930;-80
2024/02/21 01:52:25;;;;;;;;;;;8.70;99.90;;;;;;6719198;88;20656;-80
2024/02/21 02:02:26;;;;;;;;;;;8.60;99.90;;;;;;6717625;88;20403;-81
2024/02/21 02:12:26;;;;;;;;;;;8.60;99.90;;;;;;6722007;88;20074;-81
2024/02/21 02:22:32;;;;;;;;;;;8.50;99.90;;;;;;6724166;88;20083;-79
2024/02/21 02:32:32;;;;;;;;;;;8.40;99.90;;;;;;6722831;88;20106;-81
2024/02/21 02:42:32;;;;;;;;;;;8.50;99.90;;;;;;6721594;88;20179;-80
2024/02/21 02:52:33;;;;;;;;;;;8.40;99.90;;;;;;6721070;88;20096;-80
2024/02/21 03:02:34;;;;;;;;;;;8.40;99.90;;;;;;6720207;88;20612;-80
2024/02/21 03:12:34;;;;;;;;;;;8.50;99.90;;;;;;6722102;88;20058;-76
2024/02/21 03:22:35;;;;;;;;;;;8.50;99.90;;;;;;6723254;88;20163;-79
2024/02/21 03:32:36;;;;;;;;;;;8.30;99.90;;;;;;6726128;88;20050;-77
2024/02/21 03:42:37;;;;;;;;;;;8.30;99.90;;;;;;6724974;88;20028;-79
2024/02/21 03:52:37;;;;;;;;;;;8.30;99.90;;;;;;6724136;88;20167;-79
2024/02/21 04:02:38;;;;;;;;;;;8.20;99.90;;;;;;6724871;88;20090;-79
2024/02/21 04:12:38;;;;;;;;;;;8.20;99.90;;;;;;6723613;88;20100;-79
2024/02/21 04:22:39;;;;;;;;;;;8.10;99.90;;;;;;6719401;88;20062;-78
2024/02/21 04:32:39;;;;;;;;;;;8.20;99.90;;;;;;6725261;88;20064;-77
2024/02/21 04:42:40;;;;;;;;;;;8.30;99.90;;;;;;6721239;88;20131;-83
2024/02/21 04:52:40;;;;;;;;;;;8.30;99.90;;;;;;6722812;88;20064;-79
2024/02/21 05:02:41;;;;;;;;;;;8.20;99.90;;;;;;6716888;88;20037;-78
2024/02/21 05:12:41;;;;;;;;;;;8.10;99.90;;;;;;6726731;88;20092;-79
2024/02/21 05:22:42;;;;;;;;;;;8.20;99.90;;;;;;6716131;88;20931;-79
2024/02/21 05:32:42;;;;;;;;;;;8.20;99.90;;;;;;6720893;88;20189;-79
2024/02/21 05:42:43;;;;;;;;;;;8.20;99.90;;;;;;6723555;88;20096;-78
2024/02/21 05:52:43;;;;;;;;;;;8.20;99.90;;;;;;6731628;88;20747;-81
2024/02/21 06:02:44;;;;;;;;;;;8.30;99.90;;;;;;6715500;88;20068;-80
2024/02/21 06:12:44;;;;;;;;;;;8.30;99.90;;;;;;6724432;88;20028;-80
2024/02/21 06:22:45;;;;;;;;;;;8.40;99.90;;;;;;6727805;88;20060;-81
2024/02/21 06:32:45;;;;;;;;;;;8.30;99.90;;;;;;6716124;88;20130;-76
2024/02/21 06:52:50;;;;;;;;;;;8.20;99.90;;;;;;6737575;88;20091;-79
2024/02/21 07:02:53;;;;;;;;;;;8.30;99.90;;;;;;6722226;88;20067;-80
2024/02/21 07:12:54;;;;;;;;;;;8.30;99.90;;;;;;6715470;88;20774;-82
2024/02/21 07:22:55;;;;;;;;;;;8.30;99.90;;;;;;6743579;88;20078;-78
2024/02/21 07:32:55;;;;;;;;;;;8.40;99.90;;;;;;6740077;88;20291;-79
2024/02/21 07:42:56;;;;;;;;;;;8.40;99.90;;;;;;6739698;88;20083;-79
2024/02/21 07:52:57;;;;;;;;;;;8.40;99.90;;;;;;6737657;88;20058;-79
2024/02/21 08:02:57;;;;;;;;;;;8.40;99.90;;;;;;6740753;88;20224;-79
2024/02/21 08:12:57;;;;;;;;;;;8.40;99.90;;;;;;6744416;87;20058;-79
2024/02/21 08:22:58;;;;;;;;;;;8.50;99.90;;;;;;6740863;87;20099;-79
2024/02/21 08:32:58;;;;;;;;;;;8.60;99.90;;;;;;6740657;88;20213;-79
2024/02/21 08:42:59;;;;;;;;;;;8.80;99.90;;;;;;6740722;88;20541;-79
2024/02/21 08:52:59;;;;;;;;;;;9.00;99.90;;;;;;6739211;88;20228;-78
2024/02/21 09:03:00;;;;;;;;;;;9.00;99.90;;;;;;6742054;88;20094;-81
2024/02/21 09:13:00;;;;;;;;;;;9.10;99.90;;;;;;6741571;88;20078;-79
2024/02/21 09:23:01;;;;;;;;;;;9.40;99.90;;;;;;6744703;88;20189;-79
2024/02/21 09:33:02;;;;;;;;;;;9.70;99.90;;;;;;6745155;88;20062;-77
2024/02/21 09:43:06;;;;;;;;;;;9.80;99.90;;;;;;6742358;88;20099;-78
2024/02/21 09:53:07;;;;;;;;;;;10.10;99.90;;;;;;6739589;88;20355;-78
2024/02/21 10:03:08;;;;;;;;;;;9.90;99.90;;;;;;6744249;88;20070;-78
2024/02/21 10:13:09;;;;;;;;;;;10.20;99.90;;;;;;6744651;88;20800;-79
2024/02/21 10:23:10;;;;;;;;;;;10.30;99.90;;;;;;6729580;88;20095;-78
2024/02/21 10:33:15;;;;;;;;;;;10.20;99.90;;;;;;6729754;88;20199;-79
2024/02/21 10:43:18;;;;;;;;;;;10.60;99.90;;;;;;6728828;88;20079;-79
2024/02/21 10:53:37;;;;;;;;;;;11.00;99.90;;;;;;6729271;88;20094;-79
2024/02/21 11:03:37;;;;;;;;;;;11.10;99.90;;;;;;6723397;88;20079;-80
2024/02/21 11:13:38;;;;;;;;;;;10.90;99.90;;;;;;6731308;87;20062;-79
2024/02/21 11:23:38;;;;;;;;;;;11.20;99.90;;;;;;6740807;88;20091;-79
2024/02/21 11:33:39;;;;;;;;;;;11.70;99.90;;;;;;6737584;88;20206;-79
2024/02/21 11:43:41;;;;;;;;;;;11.10;99.90;;;;;;6740754;88;20059;-79
2024/02/21 11:53:42;;;;;;;;;;;11.40;99.90;;;;;;6749886;87;20054;-79
2024/02/21 12:03:49;;;;;;;;;;;11.50;99.90;;;;;;6747552;88;20100;-79
2024/02/21 12:14:03;;;;;;;;;;;11.20;99.90;;;;;;6748360;88;20108;-80
2024/02/21 12:24:11;;;;;;;;;;;11.20;99.90;;;;;;6740187;88;20054;-78
2024/02/21 12:34:11;;;;;;;;;;;11.10;99.90;;;;;;6743342;88;20055;-79
2024/02/21 12:54:15;;;;;;;;;;;11.40;99.90;;;;;;6660761;89;20090;-79
2024/02/21 13:04:16;;;;;;;;;;;11.60;99.90;;;;;;6661991;89;20134;-79
2024/02/21 13:14:16;;;;;;;;;;;11.10;99.90;;;;;;6661357;89;20121;-78
2024/02/21 13:24:17;;;;;;;;;;;11.50;99.90;;;;;;6659474;89;20088;-79
2024/02/21 13:34:17;;;;;;;;;;;11.40;99.90;;;;;;6709386;88;20111;-79
2024/02/21 13:44:18;;;;;;;;;;;11.20;99.90;;;;;;6731369;88;20084;-79
2024/02/21 13:54:19;;;;;;;;;;;11.00;99.90;;;;;;6665158;88;20114;-79
2024/02/21 14:04:20;;;;;;;;;;;10.70;99.90;;;;;;6644340;89;20512;-79
2024/02/21 14:14:20;;;;;;;;;;;10.80;99.90;;;;;;6658090;89;20220;-79
2024/02/21 14:24:21;;;;;;;;;;;11.10;99.90;;;;;;6648948;89;20066;-79
2024/02/21 14:34:21;;;;;;;;;;;11.50;99.90;;;;;;6647065;89;20054;-79
2024/02/21 14:44:21;;;;;;;;;;;11.80;99.90;;;;;;6676275;89;20053;-79
2024/02/21 14:54:22;;;;;;;;;;;11.80;99.90;;;;;;6672172;89;20087;-79
2024/02/21 15:04:23;;;;;;;;;;;11.80;99.90;;;;;;6661077;89;20061;-78
2024/02/21 15:14:23;;;;;;;;;;;11.80;99.90;;;;;;6661105;89;20065;-80
2024/02/21 15:24:24;;;;;;;;;;;11.70;99.90;;;;;;6699315;88;20053;-79
2024/02/21 15:34:25;;;;;;;;;;;11.60;99.90;;;;;;6693199;88;20129;-79
2024/02/21 15:44:25;;;;;;;;;;;11.30;99.90;;;;;;6654418;89;20047;-79
2024/02/21 15:54:27;;;;;;;;;;;11.10;99.90;;;;;;6655282;89;20147;-79
2024/02/21 16:04:28;;;;;;;;;;;11.00;99.90;;;;;;6674145;88;20137;-78
2024/02/21 16:14:29;;;;;;;;;;;10.90;99.90;;;;;;6658096;88;20057;-79
2024/02/21 16:24:29;;;;;;;;;;;10.70;99.90;;;;;;6658174;88;20081;-79
2024/02/21 16:34:30;;;;;;;;;;;10.60;99.90;;;;;;6650839;88;20684;-79
2024/02/21 16:44:35;;;;;;;;;;;10.50;99.90;;;;;;6665033;88;20527;-78
2024/02/21 16:54:35;;;;;;;;;;;10.40;99.90;;;;;;6662117;88;20183;-80
2024/02/21 17:04:36;;;;;;;;;;;10.40;99.90;;;;;;6650046;88;20081;-80
2024/02/21 17:14:37;;;;;;;;;;;10.40;99.90;;;;;;6654158;88;20097;-79
2024/02/21 17:24:38;;;;;;;;;;;10.40;99.90;;;;;;6646384;88;20527;-77
2024/02/21 17:34:39;;;;;;;;;;;10.30;99.90;;;;;;6649092;88;20142;-79
2024/02/21 17:44:42;;;;;;;;;;;10.20;99.90;;;;;;6670674;88;20110;-79
2024/02/21 17:54:44;;;;;;;;;;;10.10;99.90;;;;;;6699178;88;20053;-78
2024/02/21 18:04:44;;;;;;;;;;;10.00;99.90;;;;;;6683272;88;20119;-76
2024/02/21 18:14:45;;;;;;;;;;;10.10;99.90;;;;;;6669254;88;20088;-78
2024/02/21 18:24:46;;;;;;;;;;;10.20;99.90;;;;;;6686464;88;20104;-80
2024/02/21 18:34:46;;;;;;;;;;;10.30;99.90;;;;;;6740755;88;20190;-79
2024/02/21 19:15:58;;;;;;;;;;;9.80;99.90;;;;;;6748809;88;20044;-84
2024/02/21 19:25:59;;;;;;;;;;;9.50;99.90;;;;;;6742829;88;20058;-80
2024/02/21 19:35:59;;;;;;;;;;;9.30;99.90;;;;;;6734948;88;20055;-81
2024/02/21 19:46:00;;;;;;;;;;;9.00;99.90;;;;;;6743442;88;20125;-80
2024/02/21 19:56:01;;;;;;;;;;;9.00;99.90;;;;;;6745154;88;20124;-80
2024/02/21 20:06:02;;;;;;;;;;;8.80;99.90;;;;;;6739039;88;20059;-79
2024/02/21 20:16:03;;;;;;;;;;;8.80;99.90;;;;;;6739311;88;20180;-81
2024/02/21 20:26:05;;;;;;;;;;;8.80;99.90;;;;;;6741271;88;20263;-80
2024/02/21 20:36:06;;;;;;;;;;;8.70;99.90;;;;;;6737587;88;20064;-79
2024/02/21 20:46:06;;;;;;;;;;;8.60;99.90;;;;;;6744843;88;20070;-80
2024/02/21 20:56:10;;;;;;;;;;;8.60;99.90;;;;;;6734873;88;20074;-83
2024/02/21 21:06:11;;;;;;;;;;;8.50;99.90;;;;;;6725908;88;20063;-80
2024/02/21 21:16:11;;;;;;;;;;;8.40;99.90;;;;;;6746110;88;20097;-80
2024/02/21 21:26:12;;;;;;;;;;;8.30;99.90;;;;;;6744839;88;20132;-80
2024/02/21 21:36:12;;;;;;;;;;;8.30;99.90;;;;;;6745774;88;20124;-80
2024/02/21 21:46:13;;;;;;;;;;;8.40;99.90;;;;;;6743707;88;20079;-80
2024/02/21 21:56:14;;;;;;;;;;;8.30;99.90;;;;;;6749877;88;22104;-78
2024/02/21 22:06:14;;;;;;;;;;;8.30;99.90;;;;;;6732315;88;20062;-80
2024/02/21 22:16:15;;;;;;;;;;;8.20;99.90;;;;;;6732015;88;20063;-79
2024/02/21 22:26:18;;;;;;;;;;;8.20;99.90;;;;;;6739397;88;20073;-80
2024/02/21 22:36:18;;;;;;;;;;;8.20;99.90;;;;;;6727386;88;20078;-80
2024/02/21 22:46:20;;;;;;;;;;;8.20;99.90;;;;;;6731960;88;20084;-80
2024/02/21 22:56:21;;;;;;;;;;;8.20;99.90;;;;;;6747767;88;20057;-80
2024/02/21 23:06:22;;;;;;;;;;;8.30;99.90;;;;;;6755740;88;20075;-80
2024/02/21 23:16:22;;;;;;;;;;;8.30;99.90;;;;;;6718429;88;20067;-79
2024/02/21 23:26:27;;;;;;;;;;;8.40;99.90;;;;;;6711747;88;20104;-79
2024/02/21 23:36:27;;;;;;;;;;;8.40;99.90;;;;;;6705142;88;20109;-78
2024/02/21 23:46:28;;;;;;;;;;;8.40;99.90;;;;;;6711276;88;20124;-78
2024/02/21 23:56:28;;;;;;;;;;;8.50;99.90;;;;;;6726877;88;20054;-78
